sensor_id;sensor_type;location;lat;lon;timestamp;temperature;humidity
16964;DHT22;8598;50.508;10.436;2023-11-21T00:02:21;6.90;99.90
16964;DHT22;8598;50.508;10.436;2023-11-21T00:04:48;6.90;99.90
16964;DHT22;8598;50.508;10.436;2023-11-21T00:07:14;6.90;99.90
16964;DHT22;8598;50.508;10.436;2023-11-21T00:09:42;6.90;99.90
16964;DHT22;8598;50.508;10.436;2023-11-21T00:12:09;6.90;99.90
16964;DHT22;8598;50.508;10.436;2023-11-21T00:14:36;6.90;99.90
16964;DHT22;8598;50.508;10.436;2023-11-21T00:17:03;6.90;99.90
16964;DHT22;8598;50.508;10.436;2023-11-21T00:19:30;6.90;99.90
16964;DHT22;8598;50.508;10.436;2023-11-21T00:21:57;6.90;99.90
16964;DHT22;8598;50.508;10.436;2023-11-21T00:24:24;6.90;99.90
16964;DHT22;8598;50.508;10.436;2023-11-21T00:26:52;6.80;99.90
16964;DHT22;8598;50.508;10.436;2023-11-21T00:29:19;6.80;99.90
16964;DHT22;8598;50.508;10.436;2023-11-21T00:31:45;6.80;99.90
16964;DHT22;8598;50.508;10.436;2023-11-21T00:34:12;6.80;99.90
16964;DHT22;8598;50.508;10.436;2023-11-21T00:36:39;6.90;99.90
16964;DHT22;8598;50.508;10.436;2023-11-21T00:39:06;6.90;99.90
16964;DHT22;8598;50.508;10.436;2023-11-21T00:41:34;6.90;99.90
16964;DHT22;8598;50.508;10.436;2023-11-21T00:44:03;6.90;99.90
16964;DHT22;8598;50.508;10.436;2023-11-21T00:46:32;7.00;99.90
16964;DHT22;8598;50.508;10.436;2023-11-21T00:48:58;7.00;99.90
16964;DHT22;8598;50.508;10.436;2023-11-21T00:51:25;6.90;99.90
16964;DHT22;8598;50.508;10.436;2023-11-21T00:53:52;6.90;99.90
16964;DHT22;8598;50.508;10.436;2023-11-21T00:56:19;6.90;99.90
16964;DHT22;8598;50.508;10.436;2023-11-21T00:58:46;6.90;99.90
16964;DHT22;8598;50.508;10.436;2023-11-21T01:01:16;6.90;99.90
16964;DHT22;8598;50.508;10.436;2023-11-21T01:03:43;6.90;99.90
16964;DHT22;8598;50.508;10.436;2023-11-21T01:06:11;6.90;99.90
16964;DHT22;8598;50.508;10.436;2023-11-21T01:08:38;6.90;99.90
16964;DHT22;8598;50.508;10.436;2023-11-21T01:11:05;7.00;99.90
16964;DHT22;8598;50.508;10.436;2023-11-21T01:13:33;7.00;99.90
16964;DHT22;8598;50.508;10.436;2023-11-21T01:16:01;6.90;99.90
16964;DHT22;8598;50.508;10.436;2023-11-21T01:18:30;7.00;99.90
16964;DHT22;8598;50.508;10.436;2023-11-21T01:20:57;7.00;99.90
16964;DHT22;8598;50.508;10.436;2023-11-21T01:23:25;7.00;99.90
16964;DHT22;8598;50.508;10.436;2023-11-21T01:25:52;7.00;99.90
16964;DHT22;8598;50.508;10.436;2023-11-21T01:28:19;7.00;99.90
16964;DHT22;8598;50.508;10.436;2023-11-21T01:30:46;7.00;99.90
16964;DHT22;8598;50.508;10.436;2023-11-21T01:33:12;7.00;99.90
16964;DHT22;8598;50.508;10.436;2023-11-21T01:35:42;7.00;99.90
16964;DHT22;8598;50.508;10.436;2023-11-21T01:38:09;7.00;99.90
16964;DHT22;8598;50.508;10.436;2023-11-21T01:40:36;7.00;99.90
16964;DHT22;8598;50.508;10.436;2023-11-21T01:43:02;7.00;99.90
16964;DHT22;8598;50.508;10.436;2023-11-21T01:45:29;7.00;99.90
16964;DHT22;8598;50.508;10.436;2023-11-21T01:47:56;7.00;99.90
16964;DHT22;8598;50.508;10.436;2023-11-21T01:50:24;7.00;99.90
16964;DHT22;8598;50.508;10.436;2023-11-21T01:52:53;7.00;99.90
16964;DHT22;8598;50.508;10.436;2023-11-21T01:55:20;7.00;99.90
16964;DHT22;8598;50.508;10.436;2023-11-21T01:57:47;7.00;99.90
16964;DHT22;8598;50.508;10.436;2023-11-21T02:00:14;6.90;99.90
16964;DHT22;8598;50.508;10.436;2023-11-21T02:02:45;6.90;99.90
16964;DHT22;8598;50.508;10.436;2023-11-21T02:05:13;6.90;99.90
16964;DHT22;8598;50.508;10.436;2023-11-21T02:07:41;6.90;99.90
16964;DHT22;8598;50.508;10.436;2023-11-21T02:10:10;6.90;99.90
16964;DHT22;8598;50.508;10.436;2023-11-21T02:12:40;6.90;99.90
16964;DHT22;8598;50.508;10.436;2023-11-21T02:15:08;7.00;99.90
16964;DHT22;8598;50.508;10.436;2023-11-21T02:17:40;7.00;99.90
16964;DHT22;8598;50.508;10.436;2023-11-21T02:20:08;7.00;99.90
16964;DHT22;8598;50.508;10.436;2023-11-21T02:22:41;7.00;99.90
16964;DHT22;8598;50.508;10.436;2023-11-21T02:25:09;7.00;99.90
16964;DHT22;8598;50.508;10.436;2023-11-21T02:27:36;7.00;99.90
16964;DHT22;8598;50.508;10.436;2023-11-21T02:30:04;7.00;99.90
16964;DHT22;8598;50.508;10.436;2023-11-21T02:32:33;7.00;99.90
16964;DHT22;8598;50.508;10.436;2023-11-21T02:34:59;7.00;99.90
16964;DHT22;8598;50.508;10.436;2023-11-21T02:37:28;7.00;99.90
16964;DHT22;8598;50.508;10.436;2023-11-21T02:39:55;7.00;99.90
16964;DHT22;8598;50.508;10.436;2023-11-21T02:42:23;7.00;99.90
16964;DHT22;8598;50.508;10.436;2023-11-21T02:44:50;6.90;99.90
16964;DHT22;8598;50.508;10.436;2023-11-21T02:47:17;6.90;99.90
16964;DHT22;8598;50.508;10.436;2023-11-21T02:49:43;7.40;99.90
16964;DHT22;8598;50.508;10.436;2023-11-21T02:52:10;6.90;99.90
16964;DHT22;8598;50.508;10.436;2023-11-21T02:54:37;6.80;99.90
16964;DHT22;8598;50.508;10.436;2023-11-21T02:57:04;6.80;99.90
16964;DHT22;8598;50.508;10.436;2023-11-21T02:59:32;6.70;99.90
16964;DHT22;8598;50.508;10.436;2023-11-21T03:01:59;6.70;99.90
16964;DHT22;8598;50.508;10.436;2023-11-21T03:04:26;6.70;99.90
16964;DHT22;8598;50.508;10.436;2023-11-21T03:06:52;6.70;99.90
16964;DHT22;8598;50.508;10.436;2023-11-21T03:09:19;6.70;99.90
16964;DHT22;8598;50.508;10.436;2023-11-21T03:11:46;6.70;99.90
16964;DHT22;8598;50.508;10.436;2023-11-21T03:14:12;6.70;99.90
16964;DHT22;8598;50.508;10.436;2023-11-21T03:16:40;6.60;99.90
16964;DHT22;8598;50.508;10.436;2023-11-21T03:19:07;6.70;99.90
16964;DHT22;8598;50.508;10.436;2023-11-21T03:21:34;6.70;99.90
16964;DHT22;8598;50.508;10.436;2023-11-21T03:24:01;6.70;99.90
16964;DHT22;8598;50.508;10.436;2023-11-21T03:26:28;6.70;99.90
16964;DHT22;8598;50.508;10.436;2023-11-21T03:28:55;6.70;99.90
16964;DHT22;8598;50.508;10.436;2023-11-21T03:31:21;6.80;99.90
16964;DHT22;8598;50.508;10.436;2023-11-21T03:33:49;6.80;99.90
16964;DHT22;8598;50.508;10.436;2023-11-21T03:36:18;6.80;99.90
16964;DHT22;8598;50.508;10.436;2023-11-21T03:38:44;6.80;99.90
16964;DHT22;8598;50.508;10.436;2023-11-21T03:41:11;6.70;99.90
16964;DHT22;8598;50.508;10.436;2023-11-21T03:43:38;6.70;99.90
16964;DHT22;8598;50.508;10.436;2023-11-21T03:46:05;6.70;99.90
16964;DHT22;8598;50.508;10.436;2023-11-21T03:48:32;6.70;99.90
16964;DHT22;8598;50.508;10.436;2023-11-21T03:51:00;6.70;99.90
16964;DHT22;8598;50.508;10.436;2023-11-21T03:53:27;6.70;99.90
16964;DHT22;8598;50.508;10.436;2023-11-21T03:55:54;6.70;99.90
16964;DHT22;8598;50.508;10.436;2023-11-21T03:58:20;6.70;99.90
16964;DHT22;8598;50.508;10.436;2023-11-21T04:00:47;6.70;99.90
16964;DHT22;8598;50.508;10.436;2023-11-21T04:03:14;6.60;99.90
16964;DHT22;8598;50.508;10.436;2023-11-21T04:05:41;6.60;99.90
16964;DHT22;8598;50.508;10.436;2023-11-21T04:08:09;6.60;99.90
16964;DHT22;8598;50.508;10.436;2023-11-21T04:10:36;6.60;99.90
16964;DHT22;8598;50.508;10.436;2023-11-21T04:13:05;6.60;99.90
16964;DHT22;8598;50.508;10.436;2023-11-21T04:15:32;6.60;99.90
16964;DHT22;8598;50.508;10.436;2023-11-21T04:17:58;6.60;99.90
16964;DHT22;8598;50.508;10.436;2023-11-21T04:20:25;6.60;99.90
16964;DHT22;8598;50.508;10.436;2023-11-21T04:22:52;6.60;99.90
16964;DHT22;8598;50.508;10.436;2023-11-21T04:25:20;6.60;99.90
16964;DHT22;8598;50.508;10.436;2023-11-21T04:27:48;6.70;99.90
16964;DHT22;8598;50.508;10.436;2023-11-21T04:30:15;6.70;99.90
16964;DHT22;8598;50.508;10.436;2023-11-21T04:32:42;6.70;99.90
16964;DHT22;8598;50.508;10.436;2023-11-21T04:35:09;6.70;99.90
16964;DHT22;8598;50.508;10.436;2023-11-21T04:37:36;6.70;99.90
16964;DHT22;8598;50.508;10.436;2023-11-21T04:40:03;6.70;99.90
16964;DHT22;8598;50.508;10.436;2023-11-21T04:42:33;6.70;99.90
16964;DHT22;8598;50.508;10.436;2023-11-21T04:45:00;6.70;99.90
16964;DHT22;8598;50.508;10.436;2023-11-21T04:47:30;6.70;99.90
16964;DHT22;8598;50.508;10.436;2023-11-21T04:49:57;6.70;99.90
16964;DHT22;8598;50.508;10.436;2023-11-21T04:52:24;6.70;99.90
16964;DHT22;8598;50.508;10.436;2023-11-21T04:54:50;6.70;99.90
16964;DHT22;8598;50.508;10.436;2023-11-21T04:57:19;6.80;99.90
16964;DHT22;8598;50.508;10.436;2023-11-21T04:59:48;6.70;99.90
16964;DHT22;8598;50.508;10.436;2023-11-21T05:02:15;6.80;99.90
16964;DHT22;8598;50.508;10.436;2023-11-21T05:04:44;6.70;99.90
16964;DHT22;8598;50.508;10.436;2023-11-21T05:07:11;6.80;99.90
16964;DHT22;8598;50.508;10.436;2023-11-21T05:09:41;6.70;99.90
16964;DHT22;8598;50.508;10.436;2023-11-21T05:12:09;6.70;99.90
16964;DHT22;8598;50.508;10.436;2023-11-21T05:14:36;6.70;99.90
16964;DHT22;8598;50.508;10.436;2023-11-21T05:17:04;6.70;99.90
16964;DHT22;8598;50.508;10.436;2023-11-21T05:19:31;6.80;99.90
16964;DHT22;8598;50.508;10.436;2023-11-21T05:21:58;6.80;99.90
16964;DHT22;8598;50.508;10.436;2023-11-21T05:24:26;6.70;99.90
16964;DHT22;8598;50.508;10.436;2023-11-21T05:26:53;6.70;99.90
16964;DHT22;8598;50.508;10.436;2023-11-21T05:29:19;6.70;99.90
16964;DHT22;8598;50.508;10.436;2023-11-21T05:31:46;6.70;99.90
16964;DHT22;8598;50.508;10.436;2023-11-21T05:34:15;6.70;99.90
16964;DHT22;8598;50.508;10.436;2023-11-21T05:36:43;6.70;99.90
16964;DHT22;8598;50.508;10.436;2023-11-21T05:39:09;6.70;99.90
16964;DHT22;8598;50.508;10.436;2023-11-21T05:41:36;6.70;99.90
16964;DHT22;8598;50.508;10.436;2023-11-21T05:44:03;6.60;99.90
16964;DHT22;8598;50.508;10.436;2023-11-21T05:46:30;6.60;99.90
16964;DHT22;8598;50.508;10.436;2023-11-21T05:48:57;6.60;99.90
16964;DHT22;8598;50.508;10.436;2023-11-21T05:51:25;6.50;99.90
16964;DHT22;8598;50.508;10.436;2023-11-21T05:53:52;6.50;99.90
16964;DHT22;8598;50.508;10.436;2023-11-21T05:56:19;6.50;99.90
16964;DHT22;8598;50.508;10.436;2023-11-21T05:58:46;6.50;99.90
16964;DHT22;8598;50.508;10.436;2023-11-21T06:01:12;6.50;99.90
16964;DHT22;8598;50.508;10.436;2023-11-21T06:03:39;6.50;99.90
16964;DHT22;8598;50.508;10.436;2023-11-21T06:06:06;6.50;99.90
16964;DHT22;8598;50.508;10.436;2023-11-21T06:08:34;6.40;99.90
16964;DHT22;8598;50.508;10.436;2023-11-21T06:11:01;6.50;99.90
16964;DHT22;8598;50.508;10.436;2023-11-21T06:13:28;6.50;99.90
16964;DHT22;8598;50.508;10.436;2023-11-21T06:15:56;6.40;99.90
16964;DHT22;8598;50.508;10.436;2023-11-21T06:18:22;6.40;99.90
16964;DHT22;8598;50.508;10.436;2023-11-21T06:20:49;6.40;99.90
16964;DHT22;8598;50.508;10.436;2023-11-21T06:23:17;6.40;99.90
16964;DHT22;8598;50.508;10.436;2023-11-21T06:25:45;6.50;99.90
16964;DHT22;8598;50.508;10.436;2023-11-21T06:28:12;6.40;99.90
16964;DHT22;8598;50.508;10.436;2023-11-21T06:30:42;6.40;99.90
16964;DHT22;8598;50.508;10.436;2023-11-21T06:33:09;6.40;99.90
16964;DHT22;8598;50.508;10.436;2023-11-21T06:35:36;6.40;99.90
16964;DHT22;8598;50.508;10.436;2023-11-21T06:38:03;6.40;99.90
16964;DHT22;8598;50.508;10.436;2023-11-21T06:40:30;6.50;99.90
16964;DHT22;8598;50.508;10.436;2023-11-21T06:43:00;6.50;99.90
16964;DHT22;8598;50.508;10.436;2023-11-21T06:45:27;6.40;99.90
16964;DHT22;8598;50.508;10.436;2023-11-21T06:47:54;6.40;99.90
16964;DHT22;8598;50.508;10.436;2023-11-21T06:50:20;6.40;99.90
16964;DHT22;8598;50.508;10.436;2023-11-21T06:52:47;6.40;99.90
16964;DHT22;8598;50.508;10.436;2023-11-21T06:55:14;6.30;99.90
16964;DHT22;8598;50.508;10.436;2023-11-21T06:57:41;6.40;99.90
16964;DHT22;8598;50.508;10.436;2023-11-21T07:00:10;6.40;99.90
16964;DHT22;8598;50.508;10.436;2023-11-21T07:02:37;6.30;99.90
16964;DHT22;8598;50.508;10.436;2023-11-21T07:05:05;6.30;99.90
16964;DHT22;8598;50.508;10.436;2023-11-21T07:07:32;6.30;99.90
16964;DHT22;8598;50.508;10.436;2023-11-21T07:10:01;6.20;99.90
16964;DHT22;8598;50.508;10.436;2023-11-21T07:12:29;6.20;99.90
16964;DHT22;8598;50.508;10.436;2023-11-21T07:14:56;6.20;99.90
16964;DHT22;8598;50.508;10.436;2023-11-21T07:17:24;6.30;99.90
16964;DHT22;8598;50.508;10.436;2023-11-21T07:19:51;6.30;99.90
16964;DHT22;8598;50.508;10.436;2023-11-21T07:22:18;6.40;99.90
16964;DHT22;8598;50.508;10.436;2023-11-21T07:24:48;6.40;99.90
16964;DHT22;8598;50.508;10.436;2023-11-21T07:27:15;6.40;99.90
16964;DHT22;8598;50.508;10.436;2023-11-21T07:29:42;6.40;99.90
16964;DHT22;8598;50.508;10.436;2023-11-21T07:32:09;6.50;99.90
16964;DHT22;8598;50.508;10.436;2023-11-21T07:34:37;6.50;99.90
16964;DHT22;8598;50.508;10.436;2023-11-21T07:37:04;6.50;99.90
16964;DHT22;8598;50.508;10.436;2023-11-21T07:39:30;6.60;99.90
16964;DHT22;8598;50.508;10.436;2023-11-21T07:41:57;6.60;99.90
16964;DHT22;8598;50.508;10.436;2023-11-21T07:44:24;6.60;99.90
16964;DHT22;8598;50.508;10.436;2023-11-21T07:46:51;6.60;99.90
16964;DHT22;8598;50.508;10.436;2023-11-21T07:49:22;6.70;99.90
16964;DHT22;8598;50.508;10.436;2023-11-21T07:51:50;6.70;99.90
16964;DHT22;8598;50.508;10.436;2023-11-21T07:54:17;6.60;99.90
16964;DHT22;8598;50.508;10.436;2023-11-21T07:56:44;6.60;99.90
16964;DHT22;8598;50.508;10.436;2023-11-21T07:59:11;6.70;99.90
16964;DHT22;8598;50.508;10.436;2023-11-21T08:01:38;6.70;99.90
16964;DHT22;8598;50.508;10.436;2023-11-21T08:04:05;6.70;99.90
16964;DHT22;8598;50.508;10.436;2023-11-21T08:06:33;6.70;99.90
16964;DHT22;8598;50.508;10.436;2023-11-21T08:09:02;6.80;99.90
16964;DHT22;8598;50.508;10.436;2023-11-21T08:11:28;6.70;99.90
16964;DHT22;8598;50.508;10.436;2023-11-21T08:13:57;6.70;99.90
16964;DHT22;8598;50.508;10.436;2023-11-21T08:16:24;6.80;99.90
16964;DHT22;8598;50.508;10.436;2023-11-21T08:18:51;6.80;99.90
16964;DHT22;8598;50.508;10.436;2023-11-21T08:21:18;6.80;99.90
16964;DHT22;8598;50.508;10.436;2023-11-21T08:23:45;6.80;99.90
16964;DHT22;8598;50.508;10.436;2023-11-21T08:26:16;6.80;99.90
16964;DHT22;8598;50.508;10.436;2023-11-21T08:28:43;6.90;99.90
16964;DHT22;8598;50.508;10.436;2023-11-21T08:31:10;6.90;99.90
16964;DHT22;8598;50.508;10.436;2023-11-21T08:33:37;6.80;99.90
16964;DHT22;8598;50.508;10.436;2023-11-21T08:36:07;6.70;99.90
16964;DHT22;8598;50.508;10.436;2023-11-21T08:38:34;6.70;99.90
16964;DHT22;8598;50.508;10.436;2023-11-21T08:41:03;6.60;99.90
16964;DHT22;8598;50.508;10.436;2023-11-21T08:43:34;6.70;99.90
16964;DHT22;8598;50.508;10.436;2023-11-21T08:46:01;6.50;99.90
16964;DHT22;8598;50.508;10.436;2023-11-21T08:48:28;6.60;99.90
16964;DHT22;8598;50.508;10.436;2023-11-21T08:50:55;6.50;99.90
16964;DHT22;8598;50.508;10.436;2023-11-21T08:53:22;6.60;99.90
16964;DHT22;8598;50.508;10.436;2023-11-21T08:55:48;6.70;99.90
16964;DHT22;8598;50.508;10.436;2023-11-21T08:58:15;6.60;99.90
16964;DHT22;8598;50.508;10.436;2023-11-21T09:00:44;6.70;99.90
16964;DHT22;8598;50.508;10.436;2023-11-21T09:03:11;6.90;99.90
16964;DHT22;8598;50.508;10.436;2023-11-21T09:05:38;6.80;99.90
16964;DHT22;8598;50.508;10.436;2023-11-21T09:08:05;6.80;99.90
16964;DHT22;8598;50.508;10.436;2023-11-21T09:10:34;6.80;99.90
16964;DHT22;8598;50.508;10.436;2023-11-21T09:13:02;6.70;99.90
16964;DHT22;8598;50.508;10.436;2023-11-21T09:15:29;6.80;99.90
16964;DHT22;8598;50.508;10.436;2023-11-21T09:17:57;6.80;99.90
16964;DHT22;8598;50.508;10.436;2023-11-21T09:20:23;6.90;99.90
16964;DHT22;8598;50.508;10.436;2023-11-21T09:22:50;6.90;99.90
16964;DHT22;8598;50.508;10.436;2023-11-21T09:25:17;6.90;99.90
16964;DHT22;8598;50.508;10.436;2023-11-21T09:27:45;7.00;99.90
16964;DHT22;8598;50.508;10.436;2023-11-21T09:30:12;7.10;99.90
16964;DHT22;8598;50.508;10.436;2023-11-21T09:32:40;7.20;99.90
16964;DHT22;8598;50.508;10.436;2023-11-21T09:35:12;7.30;99.90
16964;DHT22;8598;50.508;10.436;2023-11-21T09:37:39;7.40;99.90
16964;DHT22;8598;50.508;10.436;2023-11-21T09:40:10;7.50;99.90
16964;DHT22;8598;50.508;10.436;2023-11-21T09:42:39;7.40;99.90
16964;DHT22;8598;50.508;10.436;2023-11-21T09:45:17;7.60;99.90
16964;DHT22;8598;50.508;10.436;2023-11-21T09:47:46;7.70;99.90
16964;DHT22;8598;50.508;10.436;2023-11-21T09:50:17;7.80;99.90
16964;DHT22;8598;50.508;10.436;2023-11-21T09:52:52;7.90;99.90
16964;DHT22;8598;50.508;10.436;2023-11-21T09:55:21;8.10;99.90
16964;DHT22;8598;50.508;10.436;2023-11-21T09:57:48;8.30;99.90
16964;DHT22;8598;50.508;10.436;2023-11-21T10:00:16;8.20;99.90
16964;DHT22;8598;50.508;10.436;2023-11-21T10:02:45;8.10;99.90
16964;DHT22;8598;50.508;10.436;2023-11-21T10:05:12;8.00;99.90
16964;DHT22;8598;50.508;10.436;2023-11-21T10:07:42;8.00;99.90
16964;DHT22;8598;50.508;10.436;2023-11-21T10:10:10;8.30;99.90
16964;DHT22;8598;50.508;10.436;2023-11-21T10:12:37;8.50;99.90
16964;DHT22;8598;50.508;10.436;2023-11-21T10:15:08;8.80;99.90
16964;DHT22;8598;50.508;10.436;2023-11-21T10:17:38;8.90;99.90
16964;DHT22;8598;50.508;10.436;2023-11-21T10:20:09;9.10;99.90
16964;DHT22;8598;50.508;10.436;2023-11-21T10:22:39;9.20;99.90
16964;DHT22;8598;50.508;10.436;2023-11-21T10:25:09;9.50;99.90
16964;DHT22;8598;50.508;10.436;2023-11-21T10:27:36;9.70;99.90
16964;DHT22;8598;50.508;10.436;2023-11-21T10:30:05;9.90;99.90
16964;DHT22;8598;50.508;10.436;2023-11-21T10:32:33;10.00;99.90
16964;DHT22;8598;50.508;10.436;2023-11-21T10:35:00;10.10;99.90
16964;DHT22;8598;50.508;10.436;2023-11-21T10:37:31;10.20;99.90
16964;DHT22;8598;50.508;10.436;2023-11-21T10:39:58;10.10;99.90
16964;DHT22;8598;50.508;10.436;2023-11-21T10:42:27;10.10;99.90
16964;DHT22;8598;50.508;10.436;2023-11-21T10:44:54;9.60;99.90
16964;DHT22;8598;50.508;10.436;2023-11-21T10:47:21;9.80;99.90
16964;DHT22;8598;50.508;10.436;2023-11-21T10:49:50;9.80;99.90
16964;DHT22;8598;50.508;10.436;2023-11-21T10:52:19;9.60;99.90
16964;DHT22;8598;50.508;10.436;2023-11-21T10:54:46;9.60;99.90
16964;DHT22;8598;50.508;10.436;2023-11-21T10:57:17;9.60;99.90
16964;DHT22;8598;50.508;10.436;2023-11-21T10:59:47;9.70;99.90
16964;DHT22;8598;50.508;10.436;2023-11-21T11:02:21;9.70;99.90
16964;DHT22;8598;50.508;10.436;2023-11-21T11:04:52;9.70;99.90
16964;DHT22;8598;50.508;10.436;2023-11-21T11:07:21;9.50;99.90
16964;DHT22;8598;50.508;10.436;2023-11-21T11:09:51;9.70;99.90
16964;DHT22;8598;50.508;10.436;2023-11-21T11:12:18;9.80;99.90
16964;DHT22;8598;50.508;10.436;2023-11-21T11:14:48;9.70;99.90
16964;DHT22;8598;50.508;10.436;2023-11-21T11:17:15;9.70;99.90
16964;DHT22;8598;50.508;10.436;2023-11-21T11:19:41;9.60;99.90
16964;DHT22;8598;50.508;10.436;2023-11-21T11:22:19;9.70;99.90
16964;DHT22;8598;50.508;10.436;2023-11-21T11:25:07;9.70;99.90
16964;DHT22;8598;50.508;10.436;2023-11-21T11:27:44;9.60;99.90
16964;DHT22;8598;50.508;10.436;2023-11-21T11:30:27;9.50;99.90
16964;DHT22;8598;50.508;10.436;2023-11-21T11:33:04;9.50;99.90
16964;DHT22;8598;50.508;10.436;2023-11-21T11:35:37;9.40;99.90
16964;DHT22;8598;50.508;10.436;2023-11-21T11:38:05;9.40;99.90
16964;DHT22;8598;50.508;10.436;2023-11-21T11:40:41;9.40;99.90
16964;DHT22;8598;50.508;10.436;2023-11-21T11:43:08;9.30;99.90
16964;DHT22;8598;50.508;10.436;2023-11-21T11:45:36;9.30;99.90
16964;DHT22;8598;50.508;10.436;2023-11-21T11:48:07;9.40;99.90
16964;DHT22;8598;50.508;10.436;2023-11-21T11:50:33;9.40;99.90
16964;DHT22;8598;50.508;10.436;2023-11-21T11:53:13;9.20;99.90
16964;DHT22;8598;50.508;10.436;2023-11-21T11:55:40;9.20;99.90
16964;DHT22;8598;50.508;10.436;2023-11-21T11:58:07;9.30;99.90
16964;DHT22;8598;50.508;10.436;2023-11-21T12:00:36;9.40;99.90
16964;DHT22;8598;50.508;10.436;2023-11-21T12:03:06;9.30;99.90
16964;DHT22;8598;50.508;10.436;2023-11-21T12:05:34;9.30;99.90
16964;DHT22;8598;50.508;10.436;2023-11-21T12:08:05;9.30;99.90
16964;DHT22;8598;50.508;10.436;2023-11-21T12:10:33;9.40;99.90
16964;DHT22;8598;50.508;10.436;2023-11-21T12:13:01;9.50;99.90
16964;DHT22;8598;50.508;10.436;2023-11-21T12:15:28;9.40;99.90
16964;DHT22;8598;50.508;10.436;2023-11-21T12:17:58;9.20;99.90
16964;DHT22;8598;50.508;10.436;2023-11-21T12:20:25;9.20;99.90
16964;DHT22;8598;50.508;10.436;2023-11-21T12:22:53;9.20;99.90
16964;DHT22;8598;50.508;10.436;2023-11-21T12:25:21;9.20;99.90
16964;DHT22;8598;50.508;10.436;2023-11-21T12:27:49;9.20;99.90
16964;DHT22;8598;50.508;10.436;2023-11-21T12:30:17;9.00;99.90
16964;DHT22;8598;50.508;10.436;2023-11-21T12:32:44;9.10;99.90
16964;DHT22;8598;50.508;10.436;2023-11-21T12:35:14;9.00;99.90
16964;DHT22;8598;50.508;10.436;2023-11-21T12:37:43;9.00;99.90
16964;DHT22;8598;50.508;10.436;2023-11-21T12:40:10;9.00;99.90
16964;DHT22;8598;50.508;10.436;2023-11-21T12:42:41;8.90;99.90
16964;DHT22;8598;50.508;10.436;2023-11-21T12:45:10;8.80;99.90
16964;DHT22;8598;50.508;10.436;2023-11-21T12:47:41;8.80;99.90
16964;DHT22;8598;50.508;10.436;2023-11-21T12:50:09;8.70;99.90
16964;DHT22;8598;50.508;10.436;2023-11-21T12:52:42;8.70;99.90
16964;DHT22;8598;50.508;10.436;2023-11-21T12:55:14;8.60;99.90
16964;DHT22;8598;50.508;10.436;2023-11-21T12:57:44;8.60;99.90
16964;DHT22;8598;50.508;10.436;2023-11-21T13:00:13;8.60;99.90
16964;DHT22;8598;50.508;10.436;2023-11-21T13:02:53;8.60;99.90
16964;DHT22;8598;50.508;10.436;2023-11-21T13:05:27;8.60;99.90
16964;DHT22;8598;50.508;10.436;2023-11-21T13:07:57;8.60;99.90
16964;DHT22;8598;50.508;10.436;2023-11-21T13:10:25;8.50;99.90
16964;DHT22;8598;50.508;10.436;2023-11-21T13:12:55;8.50;99.90
16964;DHT22;8598;50.508;10.436;2023-11-21T13:15:23;8.50;99.90
16964;DHT22;8598;50.508;10.436;2023-11-21T13:17:50;8.60;99.90
16964;DHT22;8598;50.508;10.436;2023-11-21T13:20:19;8.50;99.90
16964;DHT22;8598;50.508;10.436;2023-11-21T13:22:50;8.50;99.90
16964;DHT22;8598;50.508;10.436;2023-11-21T13:25:21;8.50;99.90
16964;DHT22;8598;50.508;10.436;2023-11-21T13:27:47;8.50;99.90
16964;DHT22;8598;50.508;10.436;2023-11-21T13:30:15;8.40;99.90
16964;DHT22;8598;50.508;10.436;2023-11-21T13:32:43;8.40;99.90
16964;DHT22;8598;50.508;10.436;2023-11-21T13:35:12;8.40;99.90
16964;DHT22;8598;50.508;10.436;2023-11-21T13:37:47;8.30;99.90
16964;DHT22;8598;50.508;10.436;2023-11-21T13:40:15;8.20;99.90
16964;DHT22;8598;50.508;10.436;2023-11-21T13:42:49;8.20;99.90
16964;DHT22;8598;50.508;10.436;2023-11-21T13:45:19;8.10;99.90
16964;DHT22;8598;50.508;10.436;2023-11-21T13:47:47;8.10;99.90
16964;DHT22;8598;50.508;10.436;2023-11-21T13:50:16;8.10;99.90
16964;DHT22;8598;50.508;10.436;2023-11-21T13:52:48;8.10;99.90
16964;DHT22;8598;50.508;10.436;2023-11-21T13:55:16;8.00;99.90
16964;DHT22;8598;50.508;10.436;2023-11-21T13:57:43;7.90;99.90
16964;DHT22;8598;50.508;10.436;2023-11-21T14:00:15;7.90;99.90
16964;DHT22;8598;50.508;10.436;2023-11-21T14:03:02;7.90;99.90
16964;DHT22;8598;50.508;10.436;2023-11-21T14:05:34;7.90;99.90
16964;DHT22;8598;50.508;10.436;2023-11-21T14:08:00;7.90;99.90
16964;DHT22;8598;50.508;10.436;2023-11-21T14:10:30;7.90;99.90
16964;DHT22;8598;50.508;10.436;2023-11-21T14:13:05;7.90;99.90
16964;DHT22;8598;50.508;10.436;2023-11-21T14:15:33;7.90;99.90
16964;DHT22;8598;50.508;10.436;2023-11-21T14:18:03;8.00;99.90
16964;DHT22;8598;50.508;10.436;2023-11-21T14:20:33;8.00;99.90
16964;DHT22;8598;50.508;10.436;2023-11-21T14:23:01;8.00;99.90
16964;DHT22;8598;50.508;10.436;2023-11-21T14:25:28;7.90;99.90
16964;DHT22;8598;50.508;10.436;2023-11-21T14:27:55;8.00;99.90
16964;DHT22;8598;50.508;10.436;2023-11-21T14:30:22;7.90;99.90
16964;DHT22;8598;50.508;10.436;2023-11-21T14:32:51;7.90;99.90
16964;DHT22;8598;50.508;10.436;2023-11-21T14:35:18;7.90;99.90
16964;DHT22;8598;50.508;10.436;2023-11-21T14:37:45;7.90;99.90
16964;DHT22;8598;50.508;10.436;2023-11-21T14:40:12;7.90;99.90
16964;DHT22;8598;50.508;10.436;2023-11-21T14:42:41;7.90;99.90
16964;DHT22;8598;50.508;10.436;2023-11-21T14:45:10;7.80;99.90
16964;DHT22;8598;50.508;10.436;2023-11-21T14:47:38;7.80;99.90
16964;DHT22;8598;50.508;10.436;2023-11-21T14:50:11;7.80;99.90
16964;DHT22;8598;50.508;10.436;2023-11-21T14:53:04;7.80;99.90
16964;DHT22;8598;50.508;10.436;2023-11-21T14:55:32;7.80;99.90
16964;DHT22;8598;50.508;10.436;2023-11-21T14:58:16;7.80;99.90
16964;DHT22;8598;50.508;10.436;2023-11-21T15:00:52;7.80;99.90
16964;DHT22;8598;50.508;10.436;2023-11-21T15:03:23;7.80;99.90
16964;DHT22;8598;50.508;10.436;2023-11-21T15:06:08;7.70;99.90
16964;DHT22;8598;50.508;10.436;2023-11-21T15:08:48;7.80;99.90
16964;DHT22;8598;50.508;10.436;2023-11-21T15:11:19;7.70;99.90
16964;DHT22;8598;50.508;10.436;2023-11-21T15:13:47;7.70;99.90
16964;DHT22;8598;50.508;10.436;2023-11-21T15:16:16;7.80;99.90
16964;DHT22;8598;50.508;10.436;2023-11-21T15:18:42;7.70;99.90
16964;DHT22;8598;50.508;10.436;2023-11-21T15:21:09;7.70;99.90
16964;DHT22;8598;50.508;10.436;2023-11-21T15:23:37;7.70;99.90
16964;DHT22;8598;50.508;10.436;2023-11-21T15:26:07;7.60;99.90
16964;DHT22;8598;50.508;10.436;2023-11-21T15:28:35;7.60;99.90
16964;DHT22;8598;50.508;10.436;2023-11-21T15:31:02;7.60;99.90
16964;DHT22;8598;50.508;10.436;2023-11-21T15:33:29;7.60;99.90
16964;DHT22;8598;50.508;10.436;2023-11-21T15:35:56;7.60;99.90
16964;DHT22;8598;50.508;10.436;2023-11-21T15:38:23;7.60;99.90
16964;DHT22;8598;50.508;10.436;2023-11-21T15:40:50;7.60;99.90
16964;DHT22;8598;50.508;10.436;2023-11-21T15:43:19;7.60;99.90
16964;DHT22;8598;50.508;10.436;2023-11-21T15:45:46;7.60;99.90
16964;DHT22;8598;50.508;10.436;2023-11-21T15:48:13;7.60;99.90
16964;DHT22;8598;50.508;10.436;2023-11-21T15:50:41;7.50;99.90
16964;DHT22;8598;50.508;10.436;2023-11-21T15:53:08;7.50;99.90